sensor_id;sensor_type;location;lat;lon;timestamp;P1;durP1;ratioP1;P2;durP2;ratioP2
61673;SDS011;47573;43.832;5.974;2023-02-28T00:06:24;719.05;;;517.58;;
61673;SDS011;47573;43.832;5.974;2023-02-28T00:13:06;704.10;;;513.00;;
61673;SDS011;47573;43.832;5.974;2023-02-28T00:19:47;692.65;;;507.00;;
61673;SDS011;47573;43.832;5.974;2023-02-28T00:26:28;687.10;;;492.60;;
61673;SDS011;47573;43.832;5.974;2023-02-28T00:33:10;671.27;;;482.50;;
61673;SDS011;47573;43.832;5.974;2023-02-28T00:39:50;661.28;;;471.90;;
61673;SDS011;47573;43.832;5.974;2023-02-28T00:46:31;648.80;;;463.30;;
61673;SDS011;47573;43.832;5.974;2023-02-28T00:53:13;655.22;;;458.25;;
61673;SDS011;47573;43.832;5.974;2023-02-28T00:59:54;647.22;;;452.60;;
61673;SDS011;47573;43.832;5.974;2023-02-28T01:06:34;637.17;;;442.33;;
61673;SDS011;47573;43.832;5.974;2023-02-28T01:13:17;632.00;;;435.42;;
61673;SDS011;47573;43.832;5.974;2023-02-28T01:19:58;626.20;;;429.13;;
61673;SDS011;47573;43.832;5.974;2023-02-28T01:26:38;609.10;;;420.77;;
61673;SDS011;47573;43.832;5.974;2023-02-28T01:33:20;607.77;;;413.20;;
61673;SDS011;47573;43.832;5.974;2023-02-28T01:40:00;596.75;;;400.33;;
61673;SDS011;47573;43.832;5.974;2023-02-28T01:46:43;589.65;;;388.85;;
61673;SDS011;47573;43.832;5.974;2023-02-28T01:53:28;581.05;;;385.02;;
61673;SDS011;47573;43.832;5.974;2023-02-28T02:00:13;579.92;;;379.30;;
61673;SDS011;47573;43.832;5.974;2023-02-28T02:06:56;570.75;;;372.77;;
61673;SDS011;47573;43.832;5.974;2023-02-28T02:13:59;559.75;;;365.83;;
61673;SDS011;47573;43.832;5.974;2023-02-28T02:28:07;543.75;;;349.70;;
61673;SDS011;47573;43.832;5.974;2023-02-28T02:35:12;542.47;;;346.13;;
61673;SDS011;47573;43.832;5.974;2023-02-28T02:41:55;526.20;;;337.15;;
61673;SDS011;47573;43.832;5.974;2023-02-28T02:48:41;520.35;;;333.25;;
61673;SDS011;47573;43.832;5.974;2023-02-28T02:55:26;521.20;;;327.42;;
61673;SDS011;47573;43.832;5.974;2023-02-28T03:02:08;511.65;;;318.92;;
61673;SDS011;47573;43.832;5.974;2023-02-28T03:08:52;506.88;;;312.10;;
61673;SDS011;47573;43.832;5.974;2023-02-28T03:15:35;499.13;;;305.75;;
61673;SDS011;47573;43.832;5.974;2023-02-28T03:29:37;485.30;;;294.25;;
61673;SDS011;47573;43.832;5.974;2023-02-28T03:36:24;461.98;;;285.83;;
61673;SDS011;47573;43.832;5.974;2023-02-28T03:43:09;456.75;;;280.08;;
61673;SDS011;47573;43.832;5.974;2023-02-28T03:49:56;455.25;;;272.98;;
61673;SDS011;47573;43.832;5.974;2023-02-28T03:56:41;444.77;;;263.83;;
61673;SDS011;47573;43.832;5.974;2023-02-28T04:03:27;418.60;;;255.80;;
61673;SDS011;47573;43.832;5.974;2023-02-28T04:10:08;434.83;;;252.87;;
61673;SDS011;47573;43.832;5.974;2023-02-28T04:16:51;417.10;;;247.07;;
61673;SDS011;47573;43.832;5.974;2023-02-28T04:23:32;405.30;;;242.32;;
61673;SDS011;47573;43.832;5.974;2023-02-28T04:30:13;392.00;;;229.60;;
61673;SDS011;47573;43.832;5.974;2023-02-28T04:36:55;386.70;;;225.82;;
61673;SDS011;47573;43.832;5.974;2023-02-28T04:43:36;367.27;;;218.35;;
61673;SDS011;47573;43.832;5.974;2023-02-28T04:50:17;365.42;;;214.15;;
61673;SDS011;47573;43.832;5.974;2023-02-28T04:56:58;354.25;;;210.90;;
61673;SDS011;47573;43.832;5.974;2023-02-28T05:03:39;345.25;;;200.27;;
61673;SDS011;47573;43.832;5.974;2023-02-28T05:10:20;335.52;;;191.90;;
61673;SDS011;47573;43.832;5.974;2023-02-28T05:17:01;331.33;;;189.90;;
61673;SDS011;47573;43.832;5.974;2023-02-28T05:23:42;321.70;;;181.88;;
61673;SDS011;47573;43.832;5.974;2023-02-28T05:30:23;309.70;;;178.40;;
61673;SDS011;47573;43.832;5.974;2023-02-28T05:37:05;304.25;;;172.50;;
61673;SDS011;47573;43.832;5.974;2023-02-28T05:43:45;305.40;;;168.98;;
61673;SDS011;47573;43.832;5.974;2023-02-28T05:50:26;304.35;;;166.00;;
61673;SDS011;47573;43.832;5.974;2023-02-28T05:57:08;295.33;;;162.70;;
61673;SDS011;47573;43.832;5.974;2023-02-28T06:03:48;282.45;;;155.68;;
61673;SDS011;47573;43.832;5.974;2023-02-28T06:10:29;276.00;;;150.25;;
61673;SDS011;47573;43.832;5.974;2023-02-28T06:17:11;274.40;;;152.10;;
61673;SDS011;47573;43.832;5.974;2023-02-28T06:23:51;269.45;;;147.43;;
61673;SDS011;47573;43.832;5.974;2023-02-28T06:30:32;250.10;;;139.77;;
61673;SDS011;47573;43.832;5.974;2023-02-28T06:37:14;255.55;;;140.07;;
61673;SDS011;47573;43.832;5.974;2023-02-28T06:43:54;238.20;;;131.35;;
61673;SDS011;47573;43.832;5.974;2023-02-28T06:50:35;237.02;;;128.85;;
61673;SDS011;47573;43.832;5.974;2023-02-28T06:57:17;226.25;;;123.53;;
61673;SDS011;47573;43.832;5.974;2023-02-28T07:03:58;221.75;;;120.32;;
61673;SDS011;47573;43.832;5.974;2023-02-28T07:10:39;216.10;;;117.47;;
61673;SDS011;47573;43.832;5.974;2023-02-28T07:17:21;213.45;;;116.90;;
61673;SDS011;47573;43.832;5.974;2023-02-28T07:24:01;209.50;;;115.13;;
61673;SDS011;47573;43.832;5.974;2023-02-28T07:30:42;204.45;;;113.88;;
61673;SDS011;47573;43.832;5.974;2023-02-28T07:37:24;198.25;;;108.55;;
61673;SDS011;47573;43.832;5.974;2023-02-28T07:44:04;260.33;;;126.15;;
61673;SDS011;47573;43.832;5.974;2023-02-28T07:50:45;248.02;;;121.85;;
61673;SDS011;47573;43.832;5.974;2023-02-28T07:57:35;337.90;;;142.48;;
61673;SDS011;47573;43.832;5.974;2023-02-28T08:04:17;312.63;;;140.27;;
61673;SDS011;47573;43.832;5.974;2023-02-28T08:10:58;228.70;;;121.43;;
61673;SDS011;47573;43.832;5.974;2023-02-28T08:17:41;249.82;;;120.57;;
61673;SDS011;47573;43.832;5.974;2023-02-28T08:24:21;224.07;;;116.30;;
61673;SDS011;47573;43.832;5.974;2023-02-28T08:31:06;365.40;;;146.38;;
61673;SDS011;47573;43.832;5.974;2023-02-28T08:37:49;205.15;;;110.97;;
61673;SDS011;47573;43.832;5.974;2023-02-28T08:44:30;326.73;;;144.35;;
61673;SDS011;47573;43.832;5.974;2023-02-28T08:51:11;392.70;;;159.75;;
61673;SDS011;47573;43.832;5.974;2023-02-28T08:57:55;267.85;;;126.15;;
61673;SDS011;47573;43.832;5.974;2023-02-28T09:04:35;183.45;;;105.85;;
61673;SDS011;47573;43.832;5.974;2023-02-28T09:11:16;286.67;;;140.13;;
61673;SDS011;47573;43.832;5.974;2023-02-28T09:17:58;183.55;;;103.82;;
61673;SDS011;47573;43.832;5.974;2023-02-28T09:24:38;241.95;;;123.32;;
61673;SDS011;47573;43.832;5.974;2023-02-28T09:31:19;173.10;;;100.13;;
61673;SDS011;47573;43.832;5.974;2023-02-28T09:38:03;338.55;;;152.63;;
61673;SDS011;47573;43.832;5.974;2023-02-28T09:44:44;166.02;;;96.85;;
61673;SDS011;47573;43.832;5.974;2023-02-28T09:58:15;139.02;;;85.63;;
61673;SDS011;47573;43.832;5.974;2023-02-28T10:05:01;153.88;;;93.40;;
61673;SDS011;47573;43.832;5.974;2023-02-28T10:11:48;149.98;;;94.30;;
61673;SDS011;47573;43.832;5.974;2023-02-28T10:18:34;144.45;;;90.45;;
61673;SDS011;47573;43.832;5.974;2023-02-28T10:25:22;189.23;;;102.38;;
61673;SDS011;47573;43.832;5.974;2023-02-28T10:32:05;134.32;;;87.00;;
61673;SDS011;47573;43.832;5.974;2023-02-28T10:38:47;206.85;;;119.22;;
61673;SDS011;47573;43.832;5.974;2023-02-28T10:45:29;130.10;;;83.07;;
61673;SDS011;47573;43.832;5.974;2023-02-28T10:52:11;212.13;;;112.10;;
61673;SDS011;47573;43.832;5.974;2023-02-28T10:58:54;196.88;;;104.70;;
61673;SDS011;47573;43.832;5.974;2023-02-28T11:05:36;128.52;;;83.38;;
61673;SDS011;47573;43.832;5.974;2023-02-28T11:12:20;180.50;;;102.18;;
61673;SDS011;47573;43.832;5.974;2023-02-28T11:19:05;139.98;;;92.40;;
61673;SDS011;47573;43.832;5.974;2023-02-28T11:25:58;145.90;;;93.20;;
61673;SDS011;47573;43.832;5.974;2023-02-28T11:32:41;355.23;;;167.85;;
61673;SDS011;47573;43.832;5.974;2023-02-28T11:39:30;527.45;;;217.63;;
61673;SDS011;47573;43.832;5.974;2023-02-28T11:46:15;402.23;;;197.70;;
61673;SDS011;47573;43.832;5.974;2023-02-28T11:53:05;166.30;;;107.88;;
61673;SDS011;47573;43.832;5.974;2023-02-28T11:59:57;146.48;;;96.28;;
61673;SDS011;47573;43.832;5.974;2023-02-28T12:06:48;165.07;;;105.80;;
61673;SDS011;47573;43.832;5.974;2023-02-28T12:13:36;136.70;;;90.07;;
61673;SDS011;47573;43.832;5.974;2023-02-28T12:20:30;128.77;;;86.28;;
61673;SDS011;47573;43.832;5.974;2023-02-28T12:27:16;129.52;;;88.35;;
61673;SDS011;47573;43.832;5.974;2023-02-28T12:34:03;125.97;;;87.28;;
61673;SDS011;47573;43.832;5.974;2023-02-28T12:40:50;125.60;;;87.75;;
61673;SDS011;47573;43.832;5.974;2023-02-28T12:47:34;120.22;;;84.20;;
61673;SDS011;47573;43.832;5.974;2023-02-28T12:54:17;123.18;;;83.00;;
61673;SDS011;47573;43.832;5.974;2023-02-28T13:01:19;114.65;;;79.95;;
61673;SDS011;47573;43.832;5.974;2023-02-28T13:15:34;121.45;;;84.63;;
61673;SDS011;47573;43.832;5.974;2023-02-28T13:22:19;121.95;;;85.82;;
61673;SDS011;47573;43.832;5.974;2023-02-28T13:29:27;115.40;;;82.68;;
61673;SDS011;47573;43.832;5.974;2023-02-28T13:36:19;113.32;;;81.00;;
61673;SDS011;47573;43.832;5.974;2023-02-28T13:43:08;112.47;;;81.15;;
61673;SDS011;47573;43.832;5.974;2023-02-28T13:49:49;113.47;;;79.18;;
61673;SDS011;47573;43.832;5.974;2023-02-28T13:56:34;110.22;;;78.63;;
61673;SDS011;47573;43.832;5.974;2023-02-28T14:03:34;111.10;;;79.05;;
61673;SDS011;47573;43.832;5.974;2023-02-28T14:10:26;108.32;;;79.10;;
61673;SDS011;47573;43.832;5.974;2023-02-28T14:17:12;107.43;;;76.78;;
61673;SDS011;47573;43.832;5.974;2023-02-28T14:31:22;106.63;;;76.35;;
61673;SDS011;47573;43.832;5.974;2023-02-28T14:38:13;101.60;;;72.75;;
61673;SDS011;47573;43.832;5.974;2023-02-28T14:45:00;102.20;;;73.95;;
61673;SDS011;47573;43.832;5.974;2023-02-28T14:51:40;98.53;;;70.60;;
61673;SDS011;47573;43.832;5.974;2023-02-28T14:58:23;102.47;;;72.70;;
61673;SDS011;47573;43.832;5.974;2023-02-28T15:05:22;98.50;;;73.40;;
61673;SDS011;47573;43.832;5.974;2023-02-28T15:12:05;99.55;;;74.03;;
61673;SDS011;47573;43.832;5.974;2023-02-28T15:18:46;115.20;;;83.72;;
61673;SDS011;47573;43.832;5.974;2023-02-28T15:25:31;150.00;;;106.07;;
61673;SDS011;47573;43.832;5.974;2023-02-28T15:32:20;171.95;;;119.25;;
61673;SDS011;47573;43.832;5.974;2023-02-28T15:39:16;196.75;;;132.55;;
61673;SDS011;47573;43.832;5.974;2023-02-28T15:46:02;257.33;;;169.48;;
61673;SDS011;47573;43.832;5.974;2023-02-28T15:52:44;280.58;;;186.38;;
61673;SDS011;47573;43.832;5.974;2023-02-28T15:59:26;277.88;;;184.77;;
61673;SDS011;47573;43.832;5.974;2023-02-28T16:13:23;317.05;;;210.65;;
61673;SDS011;47573;43.832;5.974;2023-02-28T16:20:06;357.17;;;247.68;;
61673;SDS011;47573;43.832;5.974;2023-02-28T16:26:53;352.40;;;242.93;;
61673;SDS011;47573;43.832;5.974;2023-02-28T16:33:37;364.10;;;247.95;;
61673;SDS011;47573;43.832;5.974;2023-02-28T16:40:19;401.08;;;272.05;;
61673;SDS011;47573;43.832;5.974;2023-02-28T16:47:01;421.23;;;285.63;;
61673;SDS011;47573;43.832;5.974;2023-02-28T16:53:44;450.67;;;308.27;;
61673;SDS011;47573;43.832;5.974;2023-02-28T17:00:26;451.15;;;308.77;;
61673;SDS011;47573;43.832;5.974;2023-02-28T17:07:08;467.23;;;315.25;;
61673;SDS011;47573;43.832;5.974;2023-02-28T17:13:53;460.95;;;310.63;;
61673;SDS011;47573;43.832;5.974;2023-02-28T17:20:34;468.30;;;316.27;;
61673;SDS011;47573;43.832;5.974;2023-02-28T17:27:15;463.75;;;312.20;;
61673;SDS011;47573;43.832;5.974;2023-02-28T17:33:56;474.37;;;323.27;;
61673;SDS011;47573;43.832;5.974;2023-02-28T17:40:37;441.35;;;298.40;;
61673;SDS011;47573;43.832;5.974;2023-02-28T17:47:17;459.97;;;312.73;;
61673;SDS011;47573;43.832;5.974;2023-02-28T17:53:59;486.43;;;332.90;;
61673;SDS011;47573;43.832;5.974;2023-02-28T18:00:40;496.10;;;342.48;;
61673;SDS011;47573;43.832;5.974;2023-02-28T18:07:20;507.63;;;357.55;;
61673;SDS011;47573;43.832;5.974;2023-02-28T18:14:03;520.53;;;366.17;;
61673;SDS011;47573;43.832;5.974;2023-02-28T18:20:44;523.22;;;369.30;;
61673;SDS011;47573;43.832;5.974;2023-02-28T18:27:25;535.70;;;388.17;;
61673;SDS011;47573;43.832;5.974;2023-02-28T18:34:07;549.83;;;400.23;;
61673;SDS011;47573;43.832;5.974;2023-02-28T18:40:51;540.83;;;385.13;;
61673;SDS011;47573;43.832;5.974;2023-02-28T18:47:33;504.90;;;358.77;;
61673;SDS011;47573;43.832;5.974;2023-02-28T18:54:15;576.77;;;432.33;;
61673;SDS011;47573;43.832;5.974;2023-02-28T19:00:56;547.93;;;403.93;;
61673;SDS011;47573;43.832;5.974;2023-02-28T19:07:36;554.95;;;396.80;;
61673;SDS011;47573;43.832;5.974;2023-02-28T19:14:18;594.83;;;424.58;;
61673;SDS011;47573;43.832;5.974;2023-02-28T19:20:59;602.25;;;435.10;;
61673;SDS011;47573;43.832;5.974;2023-02-28T19:27:39;603.27;;;442.50;;
61673;SDS011;47573;43.832;5.974;2023-02-28T19:34:21;605.60;;;438.93;;
61673;SDS011;47573;43.832;5.974;2023-02-28T19:41:02;595.03;;;437.35;;
61673;SDS011;47573;43.832;5.974;2023-02-28T19:47:44;584.00;;;422.52;;
61673;SDS011;47573;43.832;5.974;2023-02-28T19:54:26;587.43;;;431.77;;
61673;SDS011;47573;43.832;5.974;2023-02-28T20:01:08;570.30;;;411.70;;
61673;SDS011;47573;43.832;5.974;2023-02-28T20:07:49;574.13;;;423.43;;
61673;SDS011;47573;43.832;5.974;2023-02-28T20:14:31;576.83;;;416.83;;
61673;SDS011;47573;43.832;5.974;2023-02-28T20:21:12;578.72;;;431.27;;
61673;SDS011;47573;43.832;5.974;2023-02-28T20:27:52;595.63;;;457.23;;
61673;SDS011;47573;43.832;5.974;2023-02-28T20:34:34;603.90;;;461.40;;
61673;SDS011;47573;43.832;5.974;2023-02-28T20:41:15;600.28;;;454.38;;
61673;SDS011;47573;43.832;5.974;2023-02-28T20:47:56;580.28;;;433.98;;
61673;SDS011;47573;43.832;5.974;2023-02-28T20:54:38;578.47;;;434.85;;
61673;SDS011;47573;43.832;5.974;2023-02-28T21:01:19;568.00;;;421.17;;
61673;SDS011;47573;43.832;5.974;2023-02-28T21:08:00;576.35;;;424.17;;
61673;SDS011;47573;43.832;5.974;2023-02-28T21:14:42;567.87;;;424.03;;
61673;SDS011;47573;43.832;5.974;2023-02-28T21:21:23;576.88;;;420.08;;
61673;SDS011;47573;43.832;5.974;2023-02-28T21:28:04;560.33;;;421.67;;
61673;SDS011;47573;43.832;5.974;2023-02-28T21:34:46;554.42;;;410.75;;
61673;SDS011;47573;43.832;5.974;2023-02-28T21:41:26;554.33;;;409.48;;
61673;SDS011;47573;43.832;5.974;2023-02-28T21:48:07;550.65;;;400.08;;
61673;SDS011;47573;43.832;5.974;2023-02-28T21:54:49;545.40;;;394.47;;
61673;SDS011;47573;43.832;5.974;2023-02-28T22:01:30;547.40;;;390.65;;
61673;SDS011;47573;43.832;5.974;2023-02-28T22:08:11;559.72;;;409.77;;
61673;SDS011;47573;43.832;5.974;2023-02-28T22:14:53;549.57;;;403.17;;
61673;SDS011;47573;43.832;5.974;2023-02-28T22:21:34;544.20;;;389.77;;
61673;SDS011;47573;43.832;5.974;2023-02-28T22:28:15;538.45;;;389.33;;
61673;SDS011;47573;43.832;5.974;2023-02-28T22:34:57;528.67;;;380.13;;
61673;SDS011;47573;43.832;5.974;2023-02-28T22:41:37;532.38;;;381.25;;
61673;SDS011;47573;43.832;5.974;2023-02-28T22:48:18;553.97;;;405.20;;
61673;SDS011;47573;43.832;5.974;2023-02-28T22:55:00;565.90;;;418.38;;
61673;SDS011;47573;43.832;5.974;2023-02-28T23:01:41;552.25;;;402.95;;
61673;SDS011;47573;43.832;5.974;2023-02-28T23:08:21;551.58;;;403.52;;
61673;SDS011;47573;43.832;5.974;2023-02-28T23:15:04;549.77;;;398.90;;
61673;SDS011;47573;43.832;5.974;2023-02-28T23:21:45;569.88;;;414.10;;
61673;SDS011;47573;43.832;5.974;2023-02-28T23:28:26;568.90;;;417.20;;
61673;SDS011;47573;43.832;5.974;2023-02-28T23:35:08;555.80;;;398.58;;
61673;SDS011;47573;43.832;5.974;2023-02-28T23:41:50;543.08;;;388.08;;
61673;SDS011;47573;43.832;5.974;2023-02-28T23:48:31;520.70;;;365.65;;
61673;SDS011;47573;43.832;5.974;2023-02-28T23:55:13;510.52;;;357.45;;
